Terminal Aerodrome Forecast
Issued by NWS

Home | Current Version | Previous Version | Text Only | Print | Product List | Glossary On
Versions: 1 2 3 4 5 6 7 8 9 10 11 12 13 14 15 16 17 18 19 20 21 22 23 24 25
000
FTUS42 KJAX 011900 AAA
TAFVQQ
TAF AMD
KVQQ 011907Z 0119/0218 12008KT P6SM VCTS SCT040CB BKN250
      TEMPO 0120/0122 VRB12G25KT 3SM TSRA BKN025CB
     FM020000 15005KT P6SM FEW040 BKN250
     FM020300 VRB03KT P6SM SCT250
      TEMPO 0208/0212 5SM BR
     FM021300 23003KT P6SM SCT030=

USA.gov is the U.S. government's official web portal to all federal, state and local government web resources and services.